Terminal Aerodrome Forecast
Issued by NWS

Home | Current Version | Previous Version | Text Only | Print | Product List | Glossary Off
Versions: 1 2 3 4 5 6 7 8 9 10 11 12 13 14 15

000
FTUS43 KICT 022333
TAFHUT
TAF
KHUT 022333Z 0300/0324 18018G26KT P6SM SCT150
     FM030100 17013KT P6SM FEW120 SCT200
     FM031500 18016G25KT P6SM SCT100
     FM031800 19022G32KT P6SM FEW200=

USA.gov is the U.S. government's official web portal to all federal, state and local government web resources and services.